sensor_id;sensor_type;location;lat;lon;timestamp;pressure;altitude;pressure_sealevel;temperature;humidity
21960;BME280;11144;43.030;25.108;2023-01-29T00:00:14;99457.09;;;2.52;100.00
21960;BME280;11144;43.030;25.108;2023-01-29T00:01:49;99462.31;;;2.52;100.00
21960;BME280;11144;43.030;25.108;2023-01-29T00:03:23;99465.78;;;2.57;100.00
21960;BME280;11144;43.030;25.108;2023-01-29T00:04:56;99469.25;;;2.56;100.00
21960;BME280;11144;43.030;25.108;2023-01-29T00:06:47;99467.53;;;2.52;100.00
21960;BME280;11144;43.030;25.108;2023-01-29T00:08:20;99464.06;;;2.50;100.00
21960;BME280;11144;43.030;25.108;2023-01-29T00:09:53;99472.75;;;2.49;100.00
21960;BME280;11144;43.030;25.108;2023-01-29T00:11:26;99480.59;;;2.47;100.00
21960;BME280;11144;43.030;25.108;2023-01-29T00:12:59;99475.34;;;2.49;100.00
21960;BME280;11144;43.030;25.108;2023-01-29T00:14:33;99470.16;;;2.47;100.00
21960;BME280;11144;43.030;25.108;2023-01-29T00:16:06;99481.44;;;2.48;100.00
21960;BME280;11144;43.030;25.108;2023-01-29T00:17:41;99458.84;;;2.47;100.00
21960;BME280;11144;43.030;25.108;2023-01-29T00:19:14;99464.06;;;2.53;100.00
21960;BME280;11144;43.030;25.108;2023-01-29T00:20:48;99464.91;;;2.52;100.00
21960;BME280;11144;43.030;25.108;2023-01-29T00:22:21;99476.22;;;2.55;100.00
21960;BME280;11144;43.030;25.108;2023-01-29T00:23:54;99473.63;;;2.57;100.00
21960;BME280;11144;43.030;25.108;2023-01-29T00:25:27;99477.09;;;2.59;100.00
21960;BME280;11144;43.030;25.108;2023-01-29T00:27:00;99477.09;;;2.62;100.00
21960;BME280;11144;43.030;25.108;2023-01-29T00:28:33;99483.19;;;2.61;100.00
21960;BME280;11144;43.030;25.108;2023-01-29T00:30:09;99481.41;;;2.63;100.00
21960;BME280;11144;43.030;25.108;2023-01-29T00:31:44;99474.47;;;2.59;100.00
21960;BME280;11144;43.030;25.108;2023-01-29T00:33:19;99481.41;;;2.60;100.00
21960;BME280;11144;43.030;25.108;2023-01-29T00:34:52;99477.09;;;2.62;100.00
21960;BME280;11144;43.030;25.108;2023-01-29T00:36:26;99483.19;;;2.61;100.00
21960;BME280;11144;43.030;25.108;2023-01-29T00:37:59;99476.22;;;2.54;100.00
21960;BME280;11144;43.030;25.108;2023-01-29T00:39:32;99469.28;;;2.53;100.00
21960;BME280;11144;43.030;25.108;2023-01-29T00:41:18;99473.63;;;2.58;100.00
21960;BME280;11144;43.030;25.108;2023-01-29T00:43:23;99481.44;;;2.54;100.00
21960;BME280;11144;43.030;25.108;2023-01-29T00:45:14;99472.75;;;2.52;100.00
21960;BME280;11144;43.030;25.108;2023-01-29T00:46:49;99477.97;;;2.52;100.00
21960;BME280;11144;43.030;25.108;2023-01-29T00:48:24;99474.50;;;2.50;100.00
21960;BME280;11144;43.030;25.108;2023-01-29T00:49:57;99474.50;;;2.48;100.00
21960;BME280;11144;43.030;25.108;2023-01-29T00:51:31;99480.56;;;2.49;100.00
21960;BME280;11144;43.030;25.108;2023-01-29T00:53:04;99477.97;;;2.49;100.00
21960;BME280;11144;43.030;25.108;2023-01-29T00:54:37;99483.19;;;2.46;100.00
21960;BME280;11144;43.030;25.108;2023-01-29T00:56:10;99479.72;;;2.44;100.00
21960;BME280;11144;43.030;25.108;2023-01-29T00:57:44;99475.38;;;2.43;100.00
21960;BME280;11144;43.030;25.108;2023-01-29T00:59:17;99477.09;;;2.42;100.00
21960;BME280;11144;43.030;25.108;2023-01-29T01:00:51;99479.72;;;2.44;100.00
21960;BME280;11144;43.030;25.108;2023-01-29T01:02:24;99484.94;;;2.44;100.00
21960;BME280;11144;43.030;25.108;2023-01-29T01:04:17;99484.94;;;2.47;100.00
21960;BME280;11144;43.030;25.108;2023-01-29T01:06:01;99483.19;;;2.49;100.00
21960;BME280;11144;43.030;25.108;2023-01-29T01:07:35;99484.94;;;2.51;100.00
21960;BME280;11144;43.030;25.108;2023-01-29T01:09:08;99485.81;;;2.47;100.00
21960;BME280;11144;43.030;25.108;2023-01-29T01:11:06;99482.31;;;2.42;100.00
21960;BME280;11144;43.030;25.108;2023-01-29T01:12:39;99477.09;;;2.42;100.00
21960;BME280;11144;43.030;25.108;2023-01-29T01:14:11;99482.31;;;2.42;100.00
21960;BME280;11144;43.030;25.108;2023-01-29T01:15:46;99478.88;;;2.42;100.00
21960;BME280;11144;43.030;25.108;2023-01-29T01:17:19;99479.72;;;2.38;100.00
21960;BME280;11144;43.030;25.108;2023-01-29T01:18:52;99485.81;;;2.40;100.00
21960;BME280;11144;43.030;25.108;2023-01-29T01:20:29;99485.81;;;2.41;100.00
21960;BME280;11144;43.030;25.108;2023-01-29T01:22:02;99487.53;;;2.44;100.00
21960;BME280;11144;43.030;25.108;2023-01-29T01:23:35;99489.28;;;2.48;100.00
21960;BME280;11144;43.030;25.108;2023-01-29T01:25:09;99486.66;;;2.48;100.00
21960;BME280;11144;43.030;25.108;2023-01-29T01:26:41;99490.13;;;2.56;100.00
21960;BME280;11144;43.030;25.108;2023-01-29T01:28:14;99485.78;;;2.59;100.00
21960;BME280;11144;43.030;25.108;2023-01-29T01:29:48;99491.84;;;2.63;100.00
21960;BME280;11144;43.030;25.108;2023-01-29T01:31:21;99497.06;;;2.63;100.00
21960;BME280;11144;43.030;25.108;2023-01-29T01:32:54;99496.22;;;2.62;100.00
21960;BME280;11144;43.030;25.108;2023-01-29T01:34:27;99491.00;;;2.61;100.00
21960;BME280;11144;43.030;25.108;2023-01-29T01:36:01;99499.69;;;2.61;100.00
21960;BME280;11144;43.030;25.108;2023-01-29T01:37:35;99497.06;;;2.60;100.00
21960;BME280;11144;43.030;25.108;2023-01-29T01:39:09;99501.44;;;2.59;100.00
21960;BME280;11144;43.030;25.108;2023-01-29T01:40:44;99495.38;;;2.53;100.00
21960;BME280;11144;43.030;25.108;2023-01-29T01:42:18;99494.50;;;2.52;100.00
21960;BME280;11144;43.030;25.108;2023-01-29T01:43:53;99500.59;;;2.50;100.00
21960;BME280;11144;43.030;25.108;2023-01-29T01:45:29;99510.16;;;2.49;100.00
21960;BME280;11144;43.030;25.108;2023-01-29T01:47:03;99501.44;;;2.49;100.00
21960;BME280;11144;43.030;25.108;2023-01-29T01:48:36;99500.59;;;2.47;100.00
21960;BME280;11144;43.030;25.108;2023-01-29T01:50:13;99498.84;;;2.46;100.00
21960;BME280;11144;43.030;25.108;2023-01-29T01:51:50;99493.63;;;2.43;100.00
21960;BME280;11144;43.030;25.108;2023-01-29T01:53:27;99488.41;;;2.40;100.00
21960;BME280;11144;43.030;25.108;2023-01-29T01:55:02;99491.91;;;2.42;100.00
21960;BME280;11144;43.030;25.108;2023-01-29T01:56:41;99489.31;;;2.40;100.00
21960;BME280;11144;43.030;25.108;2023-01-29T01:58:21;99495.38;;;2.44;100.00
21960;BME280;11144;43.030;25.108;2023-01-29T01:59:59;99493.63;;;2.46;100.00
21960;BME280;11144;43.030;25.108;2023-01-29T02:01:52;99495.38;;;2.47;100.00
21960;BME280;11144;43.030;25.108;2023-01-29T02:03:27;99495.38;;;2.47;100.00
21960;BME280;11144;43.030;25.108;2023-01-29T02:05:21;99493.63;;;2.43;100.00
21960;BME280;11144;43.030;25.108;2023-01-29T02:07:14;99482.34;;;2.36;100.00
21960;BME280;11144;43.030;25.108;2023-01-29T02:09:08;99484.06;;;2.30;100.00
21960;BME280;11144;43.030;25.108;2023-01-29T02:11:01;99478.00;;;2.25;100.00
21960;BME280;11144;43.030;25.108;2023-01-29T02:12:35;99484.94;;;2.32;100.00
21960;BME280;11144;43.030;25.108;2023-01-29T02:14:09;99488.44;;;2.28;100.00
21960;BME280;11144;43.030;25.108;2023-01-29T02:15:43;99486.69;;;2.30;100.00
21960;BME280;11144;43.030;25.108;2023-01-29T02:17:19;99487.56;;;2.30;100.00
21960;BME280;11144;43.030;25.108;2023-01-29T02:18:53;99485.81;;;2.35;100.00
21960;BME280;11144;43.030;25.108;2023-01-29T02:20:29;99497.13;;;2.39;100.00
21960;BME280;11144;43.030;25.108;2023-01-29T02:22:26;99491.91;;;2.39;100.00
21960;BME280;11144;43.030;25.108;2023-01-29T02:24:15;99483.19;;;2.34;100.00
21960;BME280;11144;43.030;25.108;2023-01-29T02:28:15;99497.13;;;2.31;100.00
21960;BME280;11144;43.030;25.108;2023-01-29T02:29:57;99498.84;;;2.37;100.00
21960;BME280;11144;43.030;25.108;2023-01-29T02:31:38;99493.63;;;2.40;100.00
21960;BME280;11144;43.030;25.108;2023-01-29T02:33:18;99494.50;;;2.45;100.00
21960;BME280;11144;43.030;25.108;2023-01-29T02:35:02;99496.22;;;2.49;100.00
21960;BME280;11144;43.030;25.108;2023-01-29T02:36:58;99491.03;;;2.47;100.00
21960;BME280;11144;43.030;25.108;2023-01-29T02:38:39;99500.59;;;2.47;100.00
21960;BME280;11144;43.030;25.108;2023-01-29T02:40:24;99500.59;;;2.50;100.00
21960;BME280;11144;43.030;25.108;2023-01-29T02:42:07;99509.25;;;2.49;100.00
21960;BME280;11144;43.030;25.108;2023-01-29T02:43:46;99507.53;;;2.51;100.00
21960;BME280;11144;43.030;25.108;2023-01-29T02:45:26;99504.94;;;2.52;100.00
21960;BME280;11144;43.030;25.108;2023-01-29T02:47:03;99488.41;;;2.49;100.00
21960;BME280;11144;43.030;25.108;2023-01-29T02:48:45;99497.09;;;2.54;100.00
21960;BME280;11144;43.030;25.108;2023-01-29T02:50:27;99504.03;;;2.52;100.00
21960;BME280;11144;43.030;25.108;2023-01-29T02:52:09;99491.88;;;2.48;100.00
21960;BME280;11144;43.030;25.108;2023-01-29T02:53:50;99494.50;;;2.45;100.00
21960;BME280;11144;43.030;25.108;2023-01-29T02:55:29;99505.81;;;2.47;100.00
21960;BME280;11144;43.030;25.108;2023-01-29T02:57:09;99505.81;;;2.47;100.00
21960;BME280;11144;43.030;25.108;2023-01-29T02:58:51;99499.72;;;2.45;100.00
21960;BME280;11144;43.030;25.108;2023-01-29T03:00:29;99502.31;;;2.45;100.00
21960;BME280;11144;43.030;25.108;2023-01-29T03:02:08;99504.06;;;2.40;100.00
21960;BME280;11144;43.030;25.108;2023-01-29T03:03:46;99497.13;;;2.39;100.00
21960;BME280;11144;43.030;25.108;2023-01-29T03:05:27;99498.84;;;2.43;100.00
21960;BME280;11144;43.030;25.108;2023-01-29T03:07:05;99498.84;;;2.43;100.00
21960;BME280;11144;43.030;25.108;2023-01-29T03:08:44;99509.28;;;2.46;100.00
21960;BME280;11144;43.030;25.108;2023-01-29T03:10:25;99511.88;;;2.49;100.00
21960;BME280;11144;43.030;25.108;2023-01-29T03:12:06;99514.47;;;2.52;100.00
21960;BME280;11144;43.030;25.108;2023-01-29T03:13:56;99511.03;;;2.53;100.00
21960;BME280;11144;43.030;25.108;2023-01-29T03:15:34;99501.44;;;2.50;100.00
21960;BME280;11144;43.030;25.108;2023-01-29T03:17:34;99511.03;;;2.50;100.00
21960;BME280;11144;43.030;25.108;2023-01-29T03:19:12;99512.75;;;2.51;100.00
21960;BME280;11144;43.030;25.108;2023-01-29T03:20:50;99521.47;;;2.53;100.00
21960;BME280;11144;43.030;25.108;2023-01-29T03:22:26;99519.72;;;2.58;100.00
21960;BME280;11144;43.030;25.108;2023-01-29T03:23:59;99518.84;;;2.62;100.00
21960;BME280;11144;43.030;25.108;2023-01-29T03:25:53;99517.06;;;2.65;100.00
21960;BME280;11144;43.030;25.108;2023-01-29T03:27:48;99525.78;;;2.67;100.00
21960;BME280;11144;43.030;25.108;2023-01-29T03:29:47;99530.13;;;2.67;100.00
21960;BME280;11144;43.030;25.108;2023-01-29T03:31:58;99526.66;;;2.65;100.00
21960;BME280;11144;43.030;25.108;2023-01-29T03:33:42;99530.16;;;2.64;100.00
21960;BME280;11144;43.030;25.108;2023-01-29T03:35:20;99523.16;;;2.63;100.00
21960;BME280;11144;43.030;25.108;2023-01-29T03:37:13;99531.88;;;2.63;100.00
21960;BME280;11144;43.030;25.108;2023-01-29T03:38:50;99530.13;;;2.67;100.00
21960;BME280;11144;43.030;25.108;2023-01-29T03:40:25;99527.50;;;2.68;100.00
21960;BME280;11144;43.030;25.108;2023-01-29T03:42:03;99525.78;;;2.72;100.00
21960;BME280;11144;43.030;25.108;2023-01-29T03:43:49;99533.63;;;2.75;100.00
21960;BME280;11144;43.030;25.108;2023-01-29T03:45:36;99533.59;;;2.78;100.00
21960;BME280;11144;43.030;25.108;2023-01-29T03:47:16;99533.59;;;2.81;100.00
21960;BME280;11144;43.030;25.108;2023-01-29T03:48:55;99528.38;;;2.81;100.00
21960;BME280;11144;43.030;25.108;2023-01-29T03:50:37;99530.97;;;2.84;100.00
21960;BME280;11144;43.030;25.108;2023-01-29T03:52:15;99528.38;;;2.87;100.00
21960;BME280;11144;43.030;25.108;2023-01-29T03:54:06;99538.81;;;2.87;100.00
21960;BME280;11144;43.030;25.108;2023-01-29T03:55:45;99524.88;;;2.88;100.00
21960;BME280;11144;43.030;25.108;2023-01-29T03:57:30;99524.88;;;2.91;100.00
21960;BME280;11144;43.030;25.108;2023-01-29T03:59:17;99524.88;;;2.91;100.00
21960;BME280;11144;43.030;25.108;2023-01-29T04:01:14;99523.16;;;2.91;100.00
21960;BME280;11144;43.030;25.108;2023-01-29T04:02:54;99523.16;;;2.90;100.00
21960;BME280;11144;43.030;25.108;2023-01-29T04:04:32;99521.38;;;2.89;100.00
21960;BME280;11144;43.030;25.108;2023-01-29T04:06:10;99524.03;;;2.84;100.00
21960;BME280;11144;43.030;25.108;2023-01-29T04:07:58;99526.63;;;2.86;100.00
21960;BME280;11144;43.030;25.108;2023-01-29T04:09:39;99514.44;;;2.83;100.00
21960;BME280;11144;43.030;25.108;2023-01-29T04:11:17;99514.44;;;2.85;100.00
21960;BME280;11144;43.030;25.108;2023-01-29T04:12:55;99530.97;;;2.84;100.00
21960;BME280;11144;43.030;25.108;2023-01-29T04:14:30;99526.63;;;2.83;100.00
21960;BME280;11144;43.030;25.108;2023-01-29T04:16:09;99530.09;;;2.88;100.00
21960;BME280;11144;43.030;25.108;2023-01-29T04:17:58;99522.25;;;2.83;100.00
21960;BME280;11144;43.030;25.108;2023-01-29T04:19:41;99532.72;;;2.88;100.00
21960;BME280;11144;43.030;25.108;2023-01-29T04:21:15;99537.03;;;2.89;100.00
21960;BME280;11144;43.030;25.108;2023-01-29T04:22:50;99528.38;;;2.87;100.00
21960;BME280;11144;43.030;25.108;2023-01-29T04:24:24;99537.94;;;2.85;100.00
21960;BME280;11144;43.030;25.108;2023-01-29T04:26:24;99537.94;;;2.85;100.00
21960;BME280;11144;43.030;25.108;2023-01-29T04:28:09;99538.81;;;2.85;100.00
21960;BME280;11144;43.030;25.108;2023-01-29T04:29:59;99533.59;;;2.87;100.00
21960;BME280;11144;43.030;25.108;2023-01-29T04:31:44;99537.06;;;2.86;100.00
21960;BME280;11144;43.030;25.108;2023-01-29T04:33:30;99538.81;;;2.87;100.00
21960;BME280;11144;43.030;25.108;2023-01-29T04:35:13;99538.81;;;2.84;100.00
21960;BME280;11144;43.030;25.108;2023-01-29T04:36:58;99539.69;;;2.83;100.00
21960;BME280;11144;43.030;25.108;2023-01-29T04:38:45;99539.69;;;2.86;100.00
21960;BME280;11144;43.030;25.108;2023-01-29T04:42:05;99545.75;;;2.82;100.00
21960;BME280;11144;43.030;25.108;2023-01-29T04:43:46;99548.41;;;2.80;100.00
21960;BME280;11144;43.030;25.108;2023-01-29T04:45:30;99544.03;;;2.81;100.00
21960;BME280;11144;43.030;25.108;2023-01-29T04:47:15;99544.91;;;2.81;100.00
21960;BME280;11144;43.030;25.108;2023-01-29T04:49:00;99547.53;;;2.80;100.00
21960;BME280;11144;43.030;25.108;2023-01-29T04:50:39;99555.34;;;2.81;100.00
21960;BME280;11144;43.030;25.108;2023-01-29T04:52:18;99551.84;;;2.84;100.00
21960;BME280;11144;43.030;25.108;2023-01-29T04:53:58;99551.84;;;2.84;100.00
21960;BME280;11144;43.030;25.108;2023-01-29T04:55:38;99550.97;;;2.85;100.00
21960;BME280;11144;43.030;25.108;2023-01-29T04:57:17;99545.75;;;2.85;100.00
21960;BME280;11144;43.030;25.108;2023-01-29T04:58:57;99557.09;;;2.87;100.00
21960;BME280;11144;43.030;25.108;2023-01-29T05:00:34;99550.13;;;2.86;100.00
21960;BME280;11144;43.030;25.108;2023-01-29T05:02:10;99556.19;;;2.82;100.00
21960;BME280;11144;43.030;25.108;2023-01-29T05:03:48;99555.34;;;2.81;100.00
21960;BME280;11144;43.030;25.108;2023-01-29T05:05:23;99554.47;;;2.81;100.00
21960;BME280;11144;43.030;25.108;2023-01-29T05:06:57;99564.91;;;2.84;100.00
21960;BME280;11144;43.030;25.108;2023-01-29T05:08:32;99563.19;;;2.83;100.00
21960;BME280;11144;43.030;25.108;2023-01-29T05:10:09;99559.69;;;2.84;100.00
21960;BME280;11144;43.030;25.108;2023-01-29T05:11:44;99563.19;;;2.86;100.00
21960;BME280;11144;43.030;25.108;2023-01-29T05:13:21;99566.63;;;2.85;100.00
21960;BME280;11144;43.030;25.108;2023-01-29T05:14:59;99563.19;;;2.77;100.00
21960;BME280;11144;43.030;25.108;2023-01-29T05:16:36;99561.44;;;2.73;100.00
21960;BME280;11144;43.030;25.108;2023-01-29T05:18:12;99559.72;;;2.66;100.00
21960;BME280;11144;43.030;25.108;2023-01-29T05:19:46;99567.56;;;2.58;100.00
21960;BME280;11144;43.030;25.108;2023-01-29T05:21:22;99565.81;;;2.63;100.00
21960;BME280;11144;43.030;25.108;2023-01-29T05:22:55;99564.94;;;2.66;100.00
21960;BME280;11144;43.030;25.108;2023-01-29T05:24:27;99570.16;;;2.69;100.00
21960;BME280;11144;43.030;25.108;2023-01-29T05:26:01;99567.53;;;2.70;100.00
21960;BME280;11144;43.030;25.108;2023-01-29T05:27:35;99575.38;;;2.72;100.00
21960;BME280;11144;43.030;25.108;2023-01-29T05:29:26;99575.38;;;2.67;100.00
21960;BME280;11144;43.030;25.108;2023-01-29T05:30:58;99573.63;;;2.65;100.00
21960;BME280;11144;43.030;25.108;2023-01-29T05:32:31;99577.09;;;2.67;100.00
21960;BME280;11144;43.030;25.108;2023-01-29T05:34:05;99580.59;;;2.69;100.00
21960;BME280;11144;43.030;25.108;2023-01-29T05:35:38;99580.59;;;2.69;100.00
21960;BME280;11144;43.030;25.108;2023-01-29T05:37:11;99588.41;;;2.70;100.00
21960;BME280;11144;43.030;25.108;2023-01-29T05:38:45;99577.97;;;2.72;100.00
21960;BME280;11144;43.030;25.108;2023-01-29T05:40:18;99580.59;;;2.72;100.00
21960;BME280;11144;43.030;25.108;2023-01-29T05:41:51;99587.53;;;2.73;100.00
21960;BME280;11144;43.030;25.108;2023-01-29T05:43:24;99581.47;;;2.69;100.00
21960;BME280;11144;43.030;25.108;2023-01-29T05:44:58;99591.03;;;2.72;100.00
21960;BME280;11144;43.030;25.108;2023-01-29T05:46:30;99584.06;;;2.71;100.00
21960;BME280;11144;43.030;25.108;2023-01-29T05:48:03;99592.75;;;2.73;100.00
21960;BME280;11144;43.030;25.108;2023-01-29T05:49:37;99589.28;;;2.74;100.00
21960;BME280;11144;43.030;25.108;2023-01-29T05:51:10;99593.66;;;2.73;100.00
21960;BME280;11144;43.030;25.108;2023-01-29T05:52:45;99592.75;;;2.73;100.00
21960;BME280;11144;43.030;25.108;2023-01-29T05:54:18;99596.25;;;2.75;100.00
21960;BME280;11144;43.030;25.108;2023-01-29T05:55:51;99601.47;;;2.75;100.00
21960;BME280;11144;43.030;25.108;2023-01-29T05:57:24;99604.94;;;2.80;100.00
21960;BME280;11144;43.030;25.108;2023-01-29T05:58:57;99603.22;;;2.80;100.00
21960;BME280;11144;43.030;25.108;2023-01-29T06:00:30;99604.94;;;2.81;100.00
21960;BME280;11144;43.030;25.108;2023-01-29T06:02:03;99607.56;;;2.83;100.00
21960;BME280;11144;43.030;25.108;2023-01-29T06:03:37;99611.91;;;2.87;100.00
21960;BME280;11144;43.030;25.108;2023-01-29T06:05:09;99615.38;;;2.84;100.00
21960;BME280;11144;43.030;25.108;2023-01-29T06:06:42;99620.63;;;2.83;100.00
21960;BME280;11144;43.030;25.108;2023-01-29T06:08:17;99611.91;;;2.81;100.00
21960;BME280;11144;43.030;25.108;2023-01-29T06:09:50;99611.91;;;2.81;100.00
21960;BME280;11144;43.030;25.108;2023-01-29T06:11:24;99610.16;;;2.80;100.00
21960;BME280;11144;43.030;25.108;2023-01-29T06:12:57;99611.91;;;2.81;100.00
21960;BME280;11144;43.030;25.108;2023-01-29T06:14:30;99621.47;;;2.83;100.00
21960;BME280;11144;43.030;25.108;2023-01-29T06:16:04;99627.56;;;2.87;100.00
21960;BME280;11144;43.030;25.108;2023-01-29T06:17:38;99619.75;;;2.88;100.00
21960;BME280;11144;43.030;25.108;2023-01-29T06:19:11;99627.56;;;2.78;100.00
21960;BME280;11144;43.030;25.108;2023-01-29T06:20:44;99625.81;;;2.71;100.00
21960;BME280;11144;43.030;25.108;2023-01-29T06:22:17;99639.75;;;2.70;100.00
21960;BME280;11144;43.030;25.108;2023-01-29T06:23:52;99632.78;;;2.72;100.00
21960;BME280;11144;43.030;25.108;2023-01-29T06:25:26;99632.78;;;2.72;100.00
21960;BME280;11144;43.030;25.108;2023-01-29T06:26:59;99640.59;;;2.76;100.00
21960;BME280;11144;43.030;25.108;2023-01-29T06:28:33;99643.22;;;2.78;100.00
21960;BME280;11144;43.030;25.108;2023-01-29T06:30:07;99643.22;;;2.78;100.00
21960;BME280;11144;43.030;25.108;2023-01-29T06:31:40;99638.00;;;2.78;100.00
21960;BME280;11144;43.030;25.108;2023-01-29T06:33:14;99644.09;;;2.75;100.00
21960;BME280;11144;43.030;25.108;2023-01-29T06:34:47;99643.22;;;2.72;100.00
21960;BME280;11144;43.030;25.108;2023-01-29T06:36:20;99644.97;;;2.70;100.00
21960;BME280;11144;43.030;25.108;2023-01-29T06:37:53;99650.19;;;2.70;100.00
21960;BME280;11144;43.030;25.108;2023-01-29T06:39:29;99648.47;;;2.75;100.00
21960;BME280;11144;43.030;25.108;2023-01-29T06:41:07;99657.16;;;2.80;100.00
21960;BME280;11144;43.030;25.108;2023-01-29T06:42:41;99651.06;;;2.82;100.00
21960;BME280;11144;43.030;25.108;2023-01-29T06:44:16;99661.50;;;2.84;100.00
21960;BME280;11144;43.030;25.108;2023-01-29T06:45:52;99662.38;;;2.86;100.00
21960;BME280;11144;43.030;25.108;2023-01-29T06:47:26;99662.34;;;2.89;100.00
21960;BME280;11144;43.030;25.108;2023-01-29T06:48:59;99663.25;;;2.89;100.00
21960;BME280;11144;43.030;25.108;2023-01-29T06:50:32;99671.06;;;2.91;100.00
21960;BME280;11144;43.030;25.108;2023-01-29T06:52:06;99660.63;;;2.88;100.00
21960;BME280;11144;43.030;25.108;2023-01-29T06:53:39;99674.53;;;2.96;100.00
21960;BME280;11144;43.030;25.108;2023-01-29T06:55:17;99674.56;;;3.02;100.00
21960;BME280;11144;43.030;25.108;2023-01-29T06:56:50;99672.78;;;3.04;100.00
21960;BME280;11144;43.030;25.108;2023-01-29T06:58:24;99673.69;;;3.04;100.00
21960;BME280;11144;43.030;25.108;2023-01-29T06:59:57;99680.66;;;2.99;100.00
21960;BME280;11144;43.030;25.108;2023-01-29T07:01:30;99683.25;;;3.04;100.00
21960;BME280;11144;43.030;25.108;2023-01-29T07:03:08;99671.06;;;3.03;100.00
21960;BME280;11144;43.030;25.108;2023-01-29T07:04:42;99678.03;;;3.04;100.00
21960;BME280;11144;43.030;25.108;2023-01-29T07:06:15;99686.75;;;3.04;100.00
21960;BME280;11144;43.030;25.108;2023-01-29T07:07:49;99687.59;;;3.00;100.00
21960;BME280;11144;43.030;25.108;2023-01-29T07:09:22;99688.47;;;3.07;100.00
21960;BME280;11144;43.030;25.108;2023-01-29T07:10:59;99686.75;;;3.12;100.00
21960;BME280;11144;43.030;25.108;2023-01-29T07:12:32;99683.25;;;3.16;100.00
21960;BME280;11144;43.030;25.108;2023-01-29T07:14:06;99685.00;;;3.17;100.00
21960;BME280;11144;43.030;25.108;2023-01-29T07:15:39;99688.44;;;3.19;100.00
21960;BME280;11144;43.030;25.108;2023-01-29T07:17:17;99682.38;;;3.18;100.00
21960;BME280;11144;43.030;25.108;2023-01-29T07:18:51;99683.25;;;3.14;100.00
21960;BME280;11144;43.030;25.108;2023-01-29T07:20:25;99685.88;;;3.17;100.00
21960;BME280;11144;43.030;25.108;2023-01-29T07:21:59;99690.22;;;3.17;100.00
21960;BME280;11144;43.030;25.108;2023-01-29T07:23:34;99698.91;;;3.22;100.00
21960;BME280;11144;43.030;25.108;2023-01-29T07:25:08;99688.47;;;3.28;100.00
21960;BME280;11144;43.030;25.108;2023-01-29T07:26:43;99693.69;;;3.34;100.00
21960;BME280;11144;43.030;25.108;2023-01-29T07:28:16;99693.66;;;3.37;100.00
21960;BME280;11144;43.030;25.108;2023-01-29T07:29:51;99697.16;;;3.39;100.00
21960;BME280;11144;43.030;25.108;2023-01-29T07:31:24;99700.63;;;3.44;100.00
21960;BME280;11144;43.030;25.108;2023-01-29T07:33:00;99699.78;;;3.42;100.00
21960;BME280;11144;43.030;25.108;2023-01-29T07:34:34;99691.94;;;3.42;100.00
21960;BME280;11144;43.030;25.108;2023-01-29T07:36:08;99698.88;;;3.37;100.00
21960;BME280;11144;43.030;25.108;2023-01-29T07:37:41;99695.44;;;3.38;100.00
21960;BME280;11144;43.030;25.108;2023-01-29T07:39:14;99699.78;;;3.42;100.00
21960;BME280;11144;43.030;25.108;2023-01-29T07:40:48;99695.41;;;3.41;100.00
21960;BME280;11144;43.030;25.108;2023-01-29T07:42:23;99700.63;;;3.41;100.00
21960;BME280;11144;43.030;25.108;2023-01-29T07:43:56;99691.94;;;3.39;100.00
21960;BME280;11144;43.030;25.108;2023-01-29T07:45:32;99702.38;;;3.36;100.00
21960;BME280;11144;43.030;25.108;2023-01-29T07:47:06;99705.88;;;3.38;100.00
21960;BME280;11144;43.030;25.108;2023-01-29T07:48:39;99702.38;;;3.43;100.00
21960;BME280;11144;43.030;25.108;2023-01-29T07:50:12;99697.13;;;3.46;100.00
21960;BME280;11144;43.030;25.108;2023-01-29T07:51:46;99696.28;;;3.46;100.00
21960;BME280;11144;43.030;25.108;2023-01-29T07:53:19;99709.31;;;3.52;100.00
21960;BME280;11144;43.030;25.108;2023-01-29T07:54:53;99714.53;;;3.55;100.00
21960;BME280;11144;43.030;25.108;2023-01-29T07:56:26;99711.06;;;3.59;100.00
21960;BME280;11144;43.030;25.108;2023-01-29T07:58:02;99716.28;;;3.62;100.00
21960;BME280;11144;43.030;25.108;2023-01-29T07:59:35;99706.69;;;3.53;100.00
21960;BME280;11144;43.030;25.108;2023-01-29T08:01:08;99716.28;;;3.59;100.00
21960;BME280;11144;43.030;25.108;2023-01-29T08:02:42;99716.28;;;3.62;100.00
21960;BME280;11144;43.030;25.108;2023-01-29T08:04:15;99718.00;;;3.66;100.00
21960;BME280;11144;43.030;25.108;2023-01-29T08:05:48;99715.41;;;3.64;100.00
21960;BME280;11144;43.030;25.108;2023-01-29T08:07:21;99722.38;;;3.66;100.00
21960;BME280;11144;43.030;25.108;2023-01-29T08:08:55;99728.47;;;3.67;100.00
21960;BME280;11144;43.030;25.108;2023-01-29T08:10:30;99734.56;;;3.70;100.00
21960;BME280;11144;43.030;25.108;2023-01-29T08:12:04;99728.47;;;3.72;100.00
21960;BME280;11144;43.030;25.108;2023-01-29T08:13:38;99724.97;;;3.70;100.00
21960;BME280;11144;43.030;25.108;2023-01-29T08:15:11;99731.06;;;3.72;100.00
21960;BME280;11144;43.030;25.108;2023-01-29T08:16:45;99731.06;;;3.69;100.00
21960;BME280;11144;43.030;25.108;2023-01-29T08:18:18;99728.47;;;3.66;100.00
21960;BME280;11144;43.030;25.108;2023-01-29T08:19:51;99728.47;;;3.66;100.00
21960;BME280;11144;43.030;25.108;2023-01-29T08:21:24;99726.72;;;3.68;100.00
21960;BME280;11144;43.030;25.108;2023-01-29T08:22:58;99737.19;;;3.62;100.00
21960;BME280;11144;43.030;25.108;2023-01-29T08:24:32;99726.72;;;3.59;100.00
21960;BME280;11144;43.030;25.108;2023-01-29T08:26:26;99741.53;;;3.67;100.00
21960;BME280;11144;43.030;25.108;2023-01-29T08:27:59;99735.44;;;3.70;100.00
21960;BME280;11144;43.030;25.108;2023-01-29T08:29:34;99731.06;;;3.66;100.00
21960;BME280;11144;43.030;25.108;2023-01-29T08:31:13;99735.44;;;3.70;100.00
21960;BME280;11144;43.030;25.108;2023-01-29T08:32:46;99734.56;;;3.68;100.00